Time;durP1;ratioP1;P1;durP2;ratioP2;P2;SDS_P1;SDS_P2;PMS_P1;PMS_P2;Temp;Humidity;BMP_temperature;BMP_pressure;BME280_temperature;BME280_humidity;BME280_pressure;Samples;Min_cycle;Max_cycle;Signal;HPM_P1;HPM_P2
2020/12/03 00:00:44;;;;;;;33.90;19.17;;;0.20;87.30;;;;;;5067067;28;20316;-90
2020/12/03 00:03:15;;;;;;;39.57;19.87;;;0.20;86.20;;;;;;5066543;28;20580;-87
2020/12/03 00:05:43;;;;;;;33.13;19.37;;;0.20;86.00;;;;;;5061089;28;20203;-86
2020/12/03 00:08:12;;;;;;;36.97;20.63;;;0.20;86.00;;;;;;5057796;28;20203;-86
2020/12/03 00:10:39;;;;;;;37.30;20.07;;;0.30;86.00;;;;;;5061425;28;20207;-86
2020/12/03 00:13:10;;;;;;;40.87;20.23;;;0.20;87.60;;;;;;5057599;28;20198;-88
2020/12/03 00:15:36;;;;;;;38.80;20.50;;;0.20;87.90;;;;;;5057834;28;20201;-87
2020/12/03 00:18:03;;;;;;;42.00;21.17;;;0.30;87.80;;;;;;5062083;28;20205;-87
2020/12/03 00:20:30;;;;;;;37.47;20.43;;;0.20;87.80;;;;;;5064983;28;20200;-88
2020/12/03 00:22:56;;;;;;;37.93;21.03;;;0.20;88.20;;;;;;5073548;28;20220;-86
2020/12/03 00:25:23;;;;;;;40.37;21.17;;;0.30;87.70;;;;;;5072049;28;20209;-85
2020/12/03 00:27:51;;;;;;;40.13;20.70;;;0.20;87.80;;;;;;5073977;28;20691;-86
2020/12/03 00:30:18;;;;;;;40.77;21.47;;;0.30;88.70;;;;;;5071778;28;20205;-84
2020/12/03 00:32:45;;;;;;;39.40;20.60;;;0.30;87.60;;;;;;5079837;28;20216;-85
2020/12/03 00:35:13;;;;;;;43.73;21.67;;;0.30;87.60;;;;;;5072683;28;20214;-91
2020/12/03 00:37:40;;;;;;;42.70;21.73;;;0.20;88.30;;;;;;5079621;28;20292;-85
2020/12/03 00:40:07;;;;;;;44.53;21.80;;;0.20;88.90;;;;;;5073987;28;20193;-85
2020/12/03 00:42:35;;;;;;;39.37;21.57;;;0.30;89.30;;;;;;5070192;28;20225;-83
2020/12/03 00:45:02;;;;;;;38.17;21.10;;;0.30;87.90;;;;;;5081828;28;20207;-87
2020/12/03 00:47:28;;;;;;;38.53;20.30;;;0.40;89.40;;;;;;5072989;28;20219;-84
2020/12/03 00:49:56;;;;;;;40.83;21.63;;;0.40;87.70;;;;;;5070746;28;20207;-87
2020/12/03 00:52:23;;;;;;;35.40;20.67;;;0.30;87.60;;;;;;5065675;28;20275;-85
2020/12/03 00:54:49;;;;;;;36.10;20.40;;;0.20;87.90;;;;;;5070972;28;20207;-85
2020/12/03 00:57:15;;;;;;;37.63;20.57;;;0.30;88.40;;;;;;5072428;28;20219;-87
2020/12/03 00:59:43;;;;;;;40.53;21.27;;;0.30;88.70;;;;;;5068833;28;20224;-84
2020/12/03 01:02:12;;;;;;;36.83;20.90;;;0.20;88.00;;;;;;5079438;28;20224;-86
2020/12/03 01:04:39;;;;;;;34.70;20.73;;;0.20;87.50;;;;;;5062263;28;20202;-83
2020/12/03 01:07:06;;;;;;;38.17;20.70;;;0.10;88.30;;;;;;5074689;28;20217;-87
2020/12/03 01:09:34;;;;;;;37.53;20.43;;;0.10;87.90;;;;;;5078409;28;20190;-84
2020/12/03 01:12:01;;;;;;;34.13;19.27;;;0.00;87.50;;;;;;5070882;28;20316;-83
2020/12/03 01:14:27;;;;;;;35.07;19.43;;;0.00;87.40;;;;;;5074262;28;20196;-85
2020/12/03 01:16:56;;;;;;;33.37;19.67;;;-0.10;87.70;;;;;;5065911;28;20303;-86
2020/12/03 01:19:22;;;;;;;32.97;19.83;;;-0.10;87.80;;;;;;5073346;28;20203;-83
2020/12/03 01:21:49;;;;;;;38.03;20.83;;;0.00;87.50;;;;;;5072029;28;20239;-86
2020/12/03 01:24:15;;;;;;;36.90;21.13;;;0.00;87.40;;;;;;5071820;28;20599;-84
2020/12/03 01:26:43;;;;;;;36.80;21.17;;;0.00;88.00;;;;;;5068192;28;20217;-86
2020/12/03 01:29:09;;;;;;;35.93;20.70;;;-0.20;89.00;;;;;;5070092;28;20202;-87
2020/12/03 01:31:36;;;;;;;39.87;22.27;;;-0.20;89.50;;;;;;5067834;28;20225;-89
2020/12/03 01:34:03;;;;;;;39.67;21.73;;;-0.10;90.10;;;;;;5066756;28;20479;-86
2020/12/03 01:36:29;;;;;;;38.13;21.80;;;0.00;89.50;;;;;;5068749;28;20224;-86
2020/12/03 01:38:56;;;;;;;43.63;21.97;;;0.00;89.20;;;;;;5071272;28;20580;-85
2020/12/03 01:41:22;;;;;;;41.30;22.53;;;0.00;89.80;;;;;;5064194;28;20250;-84
2020/12/03 01:43:49;;;;;;;43.93;22.90;;;-0.10;89.80;;;;;;5065782;28;20233;-84
2020/12/03 01:46:15;;;;;;;42.07;22.90;;;-0.10;90.30;;;;;;5063667;28;20240;-87
2020/12/03 01:48:46;;;;;;;41.20;22.67;;;0.00;90.50;;;;;;5073731;28;20200;-85
2020/12/03 01:51:23;;;;;;;41.30;22.37;;;-0.10;90.50;;;;;;5074146;28;20231;-84
2020/12/03 01:53:51;;;;;;;43.97;23.03;;;-0.20;90.40;;;;;;5062160;28;20235;-87
2020/12/03 01:56:35;;;;;;;45.53;22.57;;;-0.20;91.00;;;;;;5069023;28;20331;-85
2020/12/03 01:59:03;;;;;;;39.73;21.07;;;-0.20;90.90;;;;;;5071017;28;20201;-84
2020/12/03 02:01:30;;;;;;;41.27;20.27;;;-0.20;90.70;;;;;;5070765;28;20267;-86
2020/12/03 02:03:57;;;;;;;41.57;21.03;;;-0.20;90.50;;;;;;5076230;28;20196;-84
2020/12/03 02:06:27;;;;;;;35.87;18.97;;;-0.30;90.30;;;;;;5074210;28;20582;-85
2020/12/03 02:08:53;;;;;;;35.97;19.77;;;-0.40;90.20;;;;;;5072246;28;20189;-86
2020/12/03 02:11:21;;;;;;;39.53;19.87;;;-0.40;90.30;;;;;;5073385;28;20227;-90
2020/12/03 02:13:54;;;;;;;38.00;19.27;;;-0.30;90.10;;;;;;5077230;28;20205;-87
2020/12/03 02:16:21;;;;;;;37.90;20.40;;;-0.30;90.30;;;;;;5079976;28;20220;-86
2020/12/03 02:18:49;;;;;;;36.10;19.30;;;-0.30;89.70;;;;;;5072671;28;20228;-85
2020/12/03 02:21:17;;;;;;;38.50;20.30;;;-0.40;89.20;;;;;;5071981;28;20239;-84
2020/12/03 02:23:44;;;;;;;34.20;18.60;;;-0.40;89.80;;;;;;5071778;28;20239;-85
2020/12/03 02:26:11;;;;;;;39.13;19.77;;;-0.30;89.50;;;;;;5079853;28;20338;-85
2020/12/03 02:28:37;;;;;;;33.93;18.90;;;-0.40;89.60;;;;;;5073768;28;20678;-87
2020/12/03 02:31:04;;;;;;;35.27;18.57;;;-0.30;88.20;;;;;;5065922;28;20224;-85
2020/12/03 02:33:31;;;;;;;36.87;18.53;;;-0.20;87.90;;;;;;5070849;28;20207;-87
2020/12/03 02:35:58;;;;;;;35.47;18.27;;;-0.20;87.90;;;;;;5068023;28;20233;-84
2020/12/03 02:38:29;;;;;;;39.10;18.93;;;-0.20;87.90;;;;;;5071326;28;20205;-84
2020/12/03 02:40:56;;;;;;;34.03;18.10;;;-0.20;87.20;;;;;;5072367;28;20224;-85
2020/12/03 02:43:22;;;;;;;36.67;19.23;;;-0.10;87.00;;;;;;5069903;28;20235;-84
2020/12/03 02:45:48;;;;;;;35.67;19.37;;;-0.10;87.40;;;;;;5072061;28;20205;-84
2020/12/03 02:48:15;;;;;;;35.63;19.33;;;0.00;87.10;;;;;;5070090;28;20205;-88
2020/12/03 02:50:41;;;;;;;35.83;19.07;;;0.00;87.40;;;;;;5060336;28;20210;-85
2020/12/03 02:53:08;;;;;;;35.23;18.77;;;0.00;87.10;;;;;;5063154;28;20204;-90
2020/12/03 02:55:35;;;;;;;33.90;18.50;;;0.00;87.20;;;;;;5061229;28;20212;-90
2020/12/03 02:58:01;;;;;;;35.53;18.37;;;0.00;85.80;;;;;;5059893;28;20212;-88
2020/12/03 03:00:28;;;;;;;36.70;19.10;;;-0.10;87.70;;;;;;5062372;28;20236;-91
2020/12/03 03:02:55;;;;;;;35.43;18.50;;;0.00;86.20;;;;;;5062335;28;20221;-88
2020/12/03 03:05:21;;;;;;;35.67;18.87;;;0.00;87.20;;;;;;5059454;28;20209;-84
2020/12/03 03:07:47;;;;;;;37.83;19.77;;;0.10;85.90;;;;;;5059474;28;20217;-84
2020/12/03 03:10:15;;;;;;;37.70;19.23;;;0.10;85.90;;;;;;5060884;28;20213;-88
2020/12/03 03:12:42;;;;;;;37.60;19.40;;;0.10;86.80;;;;;;5062455;28;20226;-89
2020/12/03 03:15:09;;;;;;;34.80;19.70;;;0.10;86.80;;;;;;5063963;28;20639;-90
2020/12/03 03:17:35;;;;;;;37.37;19.43;;;0.10;87.60;;;;;;5061994;28;20225;-86
2020/12/03 03:20:02;;;;;;;37.30;19.10;;;0.10;86.90;;;;;;5060750;28;20728;-84
2020/12/03 03:22:28;;;;;;;36.13;19.77;;;0.10;87.50;;;;;;5059640;28;20624;-92
2020/12/03 03:24:55;;;;;;;37.00;19.40;;;0.10;87.20;;;;;;5061584;28;20535;-89
2020/12/03 03:27:21;;;;;;;41.10;20.63;;;0.10;87.00;;;;;;5060351;28;20225;-87
2020/12/03 03:29:49;;;;;;;40.93;21.20;;;0.10;87.80;;;;;;5060855;28;20572;-83
2020/12/03 03:32:15;;;;;;;37.83;21.20;;;0.10;88.80;;;;;;5060477;28;20238;-89
2020/12/03 03:34:42;;;;;;;39.20;20.43;;;0.10;88.90;;;;;;5063944;28;20210;-92
2020/12/03 03:37:08;;;;;;;36.23;19.80;;;0.00;88.40;;;;;;5064557;28;20229;-83
2020/12/03 03:39:35;;;;;;;36.63;19.40;;;0.10;88.10;;;;;;5062285;28;20205;-85
2020/12/03 03:42:01;;;;;;;42.73;20.27;;;0.20;87.80;;;;;;5060276;28;20221;-85
2020/12/03 03:44:28;;;;;;;38.63;21.17;;;0.20;87.30;;;;;;5062022;28;20197;-84
2020/12/03 03:46:55;;;;;;;35.83;19.60;;;0.20;87.40;;;;;;5066222;28;20260;-87
2020/12/03 03:49:22;;;;;;;37.10;19.93;;;0.30;87.70;;;;;;5063079;28;20202;-87
2020/12/03 03:51:52;;;;;;;37.20;19.73;;;0.30;86.10;;;;;;5061545;28;20234;-88
2020/12/03 03:54:19;;;;;;;39.33;19.90;;;0.20;86.80;;;;;;5060908;28;20205;-89
2020/12/03 03:56:45;;;;;;;37.83;20.53;;;0.10;88.00;;;;;;5060665;28;20248;-87
2020/12/03 03:59:12;;;;;;;37.93;19.73;;;0.00;88.90;;;;;;5066330;28;20194;-88
2020/12/03 04:01:38;;;;;;;39.17;20.07;;;0.10;88.60;;;;;;5074145;28;20216;-87
2020/12/03 04:04:05;;;;;;;36.57;19.70;;;0.10;88.50;;;;;;5066098;28;20224;-84
2020/12/03 04:06:33;;;;;;;39.03;20.23;;;0.10;89.60;;;;;;5063136;28;20209;-90
2020/12/03 04:08:59;;;;;;;38.93;19.90;;;0.10;89.40;;;;;;5062854;28;20659;-84
2020/12/03 04:11:26;;;;;;;37.17;19.47;;;0.20;88.20;;;;;;5062298;28;20224;-86
2020/12/03 04:13:53;;;;;;;40.50;19.47;;;0.20;88.50;;;;;;5063871;28;20197;-86
2020/12/03 04:16:19;;;;;;;38.50;19.23;;;0.20;88.10;;;;;;5063616;28;20228;-86
2020/12/03 04:18:45;;;;;;;34.83;18.47;;;0.20;87.90;;;;;;5062933;28;20205;-90
2020/12/03 04:21:16;;;;;;;37.10;19.30;;;0.20;87.40;;;;;;5065026;28;20220;-83
2020/12/03 04:23:42;;;;;;;37.77;19.13;;;0.20;88.00;;;;;;5061185;28;20193;-82
2020/12/03 04:26:09;;;;;;;35.87;19.07;;;0.20;87.40;;;;;;5071847;28;20225;-88
2020/12/03 04:28:35;;;;;;;35.87;19.00;;;0.20;88.00;;;;;;5075650;28;20201;-86
2020/12/03 04:31:02;;;;;;;37.13;19.20;;;0.30;88.20;;;;;;5066525;28;20245;-87
2020/12/03 04:33:28;;;;;;;36.00;19.23;;;0.20;87.80;;;;;;5067559;28;20209;-83
2020/12/03 04:35:55;;;;;;;39.30;20.00;;;0.10;89.10;;;;;;5073525;28;20709;-84
2020/12/03 04:38:22;;;;;;;37.67;19.30;;;0.00;90.00;;;;;;5074105;28;20233;-85
2020/12/03 04:40:49;;;;;;;35.90;19.73;;;-0.10;90.20;;;;;;5077447;28;20608;-83
2020/12/03 04:43:22;;;;;;;37.93;18.93;;;0.00;90.00;;;;;;5065243;28;20582;-83
2020/12/03 04:45:55;;;;;;;34.40;18.30;;;0.10;90.00;;;;;;5067912;28;20639;-89
2020/12/03 04:49:01;;;;;;;38.60;19.23;;;0.00;90.10;;;;;;5073192;28;20204;-83
2020/12/03 04:51:43;;;;;;;39.33;19.20;;;0.10;90.20;;;;;;4991708;28;20771;-83
2020/12/03 04:54:23;;;;;;;36.80;17.97;;;0.10;90.10;;;;;;4990042;28;20209;-87
2020/12/03 04:56:57;;;;;;;36.63;19.20;;;0.10;90.10;;;;;;5042773;28;20230;-85
2020/12/03 04:59:37;;;;;;;39.63;19.53;;;0.00;90.10;;;;;;5076100;28;20463;-93
2020/12/03 05:02:42;;;;;;;37.47;19.00;;;-0.10;90.60;;;;;;5076952;28;20236;-86
2020/12/03 05:05:22;;;;;;;38.43;18.77;;;0.00;90.50;;;;;;5055254;28;20198;-86
2020/12/03 05:08:07;;;;;;;33.57;18.33;;;0.00;90.30;;;;;;5073370;28;20228;-84
2020/12/03 05:10:47;;;;;;;37.93;19.00;;;-0.10;90.30;;;;;;5073464;28;20192;-85
2020/12/03 05:13:19;;;;;;;37.30;19.00;;;-0.10;90.40;;;;;;5080621;28;20295;-82
2020/12/03 05:15:49;;;;;;;42.07;19.60;;;-0.20;90.50;;;;;;5069418;28;20555;-82
2020/12/03 05:18:32;;;;;;;40.40;18.67;;;-0.20;91.00;;;;;;5075885;28;20197;-83
2020/12/03 05:21:02;;;;;;;36.90;17.50;;;-0.30;90.90;;;;;;5073110;28;20255;-87
2020/12/03 05:23:30;;;;;;;37.13;19.37;;;-0.40;90.90;;;;;;5075273;28;20238;-83
2020/12/03 05:25:59;;;;;;;37.70;19.00;;;-0.50;91.20;;;;;;5080209;28;20197;-88
2020/12/03 05:28:43;;;;;;;41.53;20.13;;;-0.50;91.40;;;;;;5075804;28;20275;-89
2020/12/03 05:31:16;;;;;;;36.20;18.90;;;-0.60;91.60;;;;;;5076714;28;20232;-84
2020/12/03 05:33:44;;;;;;;39.43;19.83;;;-0.60;91.70;;;;;;5079150;28;20200;-82
2020/12/03 05:36:31;;;;;;;38.63;18.70;;;-0.60;91.80;;;;;;5072362;28;20231;-82
2020/12/03 05:39:00;;;;;;;36.33;18.23;;;-0.80;91.70;;;;;;5083334;28;20192;-85
2020/12/03 05:41:35;;;;;;;39.00;18.63;;;-1.00;92.20;;;;;;5076352;28;20229;-87
2020/12/03 05:44:07;;;;;;;39.20;18.43;;;-1.00;92.70;;;;;;5076890;28;20215;-83
2020/12/03 05:46:35;;;;;;;35.70;17.87;;;-1.00;93.20;;;;;;5079745;28;20230;-83
2020/12/03 05:49:03;;;;;;;38.37;18.90;;;-1.00;93.30;;;;;;5066929;28;20213;-82
2020/12/03 05:51:32;;;;;;;37.40;19.00;;;-1.00;93.30;;;;;;5072310;28;20709;-86
2020/12/03 05:54:02;;;;;;;38.57;19.23;;;-1.00;93.40;;;;;;5078325;28;20201;-84
2020/12/03 05:56:31;;;;;;;39.43;18.13;;;-0.90;93.20;;;;;;5088325;28;20653;-82
2020/12/03 05:59:12;;;;;;;38.23;18.53;;;-0.90;93.00;;;;;;5079736;28;20212;-86
2020/12/03 06:01:54;;;;;;;37.97;18.63;;;-0.90;92.70;;;;;;5075276;28;20298;-84
2020/12/03 06:08:12;;;;;;;38.40;18.00;;;-0.80;92.90;;;;;;5081159;28;20274;-85
2020/12/03 06:10:58;;;;;;;37.43;19.57;;;-0.80;92.70;;;;;;5071278;28;20778;-83
2020/12/03 06:13:53;;;;;;;37.33;18.83;;;-0.90;92.60;;;;;;5082271;28;20648;-84
2020/12/03 06:16:34;;;;;;;35.57;18.17;;;-1.00;93.00;;;;;;5069524;28;20233;-83
2020/12/03 06:19:18;;;;;;;43.03;19.63;;;-1.00;93.10;;;;;;5072186;28;20201;-84
2020/12/03 06:22:13;;;;;;;36.60;18.67;;;-1.00;93.10;;;;;;5070982;28;20295;-82
2020/12/03 06:25:13;;;;;;;34.50;18.17;;;-0.90;93.30;;;;;;5069380;28;20204;-84
2020/12/03 06:28:23;;;;;;;38.03;18.63;;;-1.00;93.10;;;;;;5058925;28;20229;-85
2020/12/03 06:30:58;;;;;;;39.40;19.67;;;-0.90;93.10;;;;;;5036879;28;20209;-89
2020/12/03 06:33:37;;;;;;;42.67;20.20;;;-0.90;93.10;;;;;;5065305;28;20208;-82
2020/12/03 06:36:15;;;;;;;37.07;19.77;;;-0.90;92.90;;;;;;5062599;28;20302;-85
2020/12/03 06:38:58;;;;;;;45.37;20.30;;;-0.80;93.00;;;;;;5063174;28;20518;-84
2020/12/03 06:41:33;;;;;;;43.23;20.97;;;-0.80;93.10;;;;;;5065344;28;20284;-81
2020/12/03 06:44:13;;;;;;;45.57;23.00;;;-0.80;93.10;;;;;;5065548;28;20209;-85
2020/12/03 06:47:11;;;;;;;40.97;21.47;;;-0.80;93.00;;;;;;5068280;28;20220;-82
2020/12/03 06:49:49;;;;;;;43.77;21.57;;;-0.70;92.90;;;;;;5072690;28;20197;-83
2020/12/03 06:52:48;;;;;;;39.10;20.47;;;-0.60;92.70;;;;;;5069447;28;20248;-89
2020/12/03 06:55:45;;;;;;;44.00;20.43;;;-0.60;92.50;;;;;;5065936;28;20198;-90
2020/12/03 06:58:41;;;;;;;40.33;20.60;;;-0.70;92.50;;;;;;5069998;28;20217;-84
2020/12/03 07:01:30;;;;;;;45.80;20.47;;;-0.70;92.90;;;;;;5066126;28;20256;-83
2020/12/03 07:04:33;;;;;;;43.77;20.77;;;-0.70;93.00;;;;;;5071503;28;20201;-85
2020/12/03 07:07:43;;;;;;;42.17;20.83;;;-0.60;93.00;;;;;;5037474;28;20569;-84
2020/12/03 07:11:00;;;;;;;40.37;19.30;;;-0.60;92.70;;;;;;5062152;28;20212;-82
2020/12/03 07:14:23;;;;;;;39.70;20.70;;;-0.60;92.70;;;;;;5035731;28;20230;-83
2020/12/03 07:17:19;;;;;;;40.73;20.13;;;-0.50;92.50;;;;;;5067731;28;20231;-83
2020/12/03 07:20:27;;;;;;;41.20;21.00;;;-0.40;92.30;;;;;;5072708;28;20193;-82
2020/12/03 07:22:57;;;;;;;38.77;19.93;;;-0.40;92.50;;;;;;5070532;28;20217;-82
2020/12/03 07:25:24;;;;;;;36.40;19.90;;;-0.30;92.20;;;;;;5074371;28;20222;-84
2020/12/03 07:28:16;;;;;;;42.87;21.53;;;-0.30;92.10;;;;;;5083906;28;20228;-81
2020/12/03 07:30:49;;;;;;;47.27;21.67;;;-0.30;92.10;;;;;;5070089;28;20201;-87
2020/12/03 07:33:22;;;;;;;40.40;20.13;;;-0.20;92.10;;;;;;5071924;28;20591;-86
2020/12/03 07:36:02;;;;;;;41.17;20.67;;;-0.20;91.90;;;;;;5065208;28;20189;-84
2020/12/03 07:38:34;;;;;;;39.90;20.93;;;-0.10;91.80;;;;;;5063201;28;20213;-81
2020/12/03 07:41:02;;;;;;;43.83;20.77;;;0.00;91.60;;;;;;5069751;28;20236;-81
2020/12/03 07:43:31;;;;;;;40.87;21.37;;;0.00;91.30;;;;;;5049012;28;20229;-82
2020/12/03 07:45:57;;;;;;;40.80;20.33;;;0.10;91.30;;;;;;5053187;28;20576;-84
2020/12/03 07:48:42;;;;;;;39.67;20.40;;;0.10;91.50;;;;;;5077559;28;20571;-84
2020/12/03 07:51:15;;;;;;;39.33;21.43;;;0.20;91.20;;;;;;5075726;28;20224;-89
2020/12/03 07:53:42;;;;;;;39.20;21.33;;;0.40;90.90;;;;;;5075692;28;20209;-82
2020/12/03 07:56:38;;;;;;;41.07;20.83;;;0.50;90.60;;;;;;5075959;28;20221;-87
2020/12/03 07:59:30;;;;;;;42.37;20.90;;;0.70;90.40;;;;;;5072267;28;20195;-87
2020/12/03 08:01:57;;;;;;;40.83;21.17;;;0.60;90.00;;;;;;5063816;28;20269;-85
2020/12/03 08:04:31;;;;;;;40.47;20.80;;;0.60;89.10;;;;;;5072795;28;20207;-81
2020/12/03 08:07:31;;;;;;;36.97;19.93;;;0.60;88.80;;;;;;5077136;28;20245;-84
2020/12/03 08:09:58;;;;;;;40.53;19.93;;;0.70;90.00;;;;;;5066676;28;20211;-83
2020/12/03 08:12:28;;;;;;;39.03;20.30;;;0.90;89.00;;;;;;5072032;28;20219;-80
2020/12/03 08:14:55;;;;;;;34.60;19.93;;;1.00;88.60;;;;;;5067126;28;20253;-80
2020/12/03 08:17:42;;;;;;;38.40;20.60;;;1.00;89.00;;;;;;5062132;28;20239;-87
2020/12/03 08:20:43;;;;;;;37.30;19.93;;;0.90;89.60;;;;;;5070366;28;20576;-81
2020/12/03 08:23:11;;;;;;;33.73;18.67;;;0.90;89.00;;;;;;5065614;28;20227;-85
2020/12/03 08:25:45;;;;;;;36.00;18.60;;;0.90;90.00;;;;;;5069231;28;20313;-82
2020/12/03 08:28:20;;;;;;;33.73;19.00;;;1.10;89.30;;;;;;5060611;28;20708;-84
2020/12/03 08:30:51;;;;;;;32.83;18.23;;;1.20;88.50;;;;;;5068200;28;20212;-83
2020/12/03 08:33:24;;;;;;;31.83;18.00;;;1.30;87.70;;;;;;5077050;28;20251;-82
2020/12/03 08:35:54;;;;;;;33.73;19.00;;;1.40;86.70;;;;;;5068306;28;20212;-82
2020/12/03 08:38:22;;;;;;;32.90;18.10;;;1.40;86.70;;;;;;5069534;28;20263;-86
2020/12/03 08:40:51;;;;;;;31.47;18.40;;;1.50;86.70;;;;;;5058600;28;20232;-83
2020/12/03 08:43:18;;;;;;;35.27;18.27;;;1.60;86.80;;;;;;5039821;28;20249;-86
2020/12/03 08:45:52;;;;;;;30.20;17.10;;;1.70;86.80;;;;;;5039398;28;20435;-82
2020/12/03 08:48:25;;;;;;;30.87;17.70;;;1.80;86.10;;;;;;5072324;28;20213;-90
2020/12/03 08:50:59;;;;;;;30.77;17.40;;;1.90;85.20;;;;;;5067183;28;20197;-83
2020/12/03 08:53:27;;;;;;;29.50;17.07;;;2.10;84.30;;;;;;5055756;28;20210;-86
2020/12/03 08:55:57;;;;;;;32.57;17.13;;;2.10;83.70;;;;;;5046311;28;20233;-83
2020/12/03 08:58:25;;;;;;;29.43;17.63;;;2.10;83.50;;;;;;5049224;28;20237;-83
2020/12/03 09:00:54;;;;;;;26.30;16.80;;;2.10;85.00;;;;;;5053056;28;20248;-84
2020/12/03 09:03:22;;;;;;;27.63;16.33;;;2.30;83.30;;;;;;5061133;28;20682;-83
2020/12/03 09:05:50;;;;;;;30.63;17.73;;;2.40;81.80;;;;;;5062366;28;20201;-82
2020/12/03 09:08:19;;;;;;;26.37;16.30;;;2.30;81.60;;;;;;5067337;28;20215;-84
2020/12/03 09:10:48;;;;;;;29.33;16.40;;;2.60;81.10;;;;;;5059206;28;20256;-84
2020/12/03 09:13:18;;;;;;;26.50;16.87;;;2.60;80.40;;;;;;5067622;28;20213;-83
2020/12/03 09:15:46;;;;;;;28.90;16.30;;;2.80;80.00;;;;;;5071262;28;20572;-85
2020/12/03 09:18:13;;;;;;;25.57;15.67;;;2.90;79.40;;;;;;5054892;28;20297;-84
2020/12/03 09:20:44;;;;;;;24.57;15.63;;;2.70;79.40;;;;;;5050948;28;20849;-81
2020/12/03 09:23:15;;;;;;;26.67;16.60;;;3.00;79.10;;;;;;5053302;28;20307;-84
2020/12/03 09:25:42;;;;;;;24.83;16.20;;;3.10;78.50;;;;;;5051217;28;20214;-82
2020/12/03 09:28:09;;;;;;;28.73;16.17;;;3.30;78.50;;;;;;5067415;28;20225;-89
2020/12/03 09:30:39;;;;;;;25.83;16.47;;;3.30;76.70;;;;;;5068012;28;20197;-85
2020/12/03 09:33:11;;;;;;;26.17;16.03;;;3.20;76.80;;;;;;5052353;28;20634;-82
2020/12/03 09:35:40;;;;;;;25.43;16.33;;;3.30;77.00;;;;;;5053981;28;20538;-82
2020/12/03 09:38:09;;;;;;;24.97;15.90;;;3.20;77.40;;;;;;5051996;28;20217;-87
2020/12/03 09:40:36;;;;;;;24.50;16.00;;;3.10;78.50;;;;;;5057328;28;20206;-87
2020/12/03 09:43:03;;;;;;;25.53;16.37;;;3.10;78.30;;;;;;5061679;28;20256;-84
2020/12/03 09:45:34;;;;;;;25.63;16.37;;;3.20;77.90;;;;;;5052408;28;20205;-82
2020/12/03 09:48:01;;;;;;;23.30;15.40;;;3.30;77.70;;;;;;5052820;28;20248;-88
2020/12/03 09:50:28;;;;;;;26.00;15.87;;;3.40;77.10;;;;;;5051320;28;20243;-82
2020/12/03 09:52:55;;;;;;;24.70;15.40;;;3.30;77.60;;;;;;5051905;28;20678;-82
2020/12/03 09:55:23;;;;;;;22.30;14.80;;;3.40;77.30;;;;;;5050427;28;20606;-85
2020/12/03 09:57:54;;;;;;;23.33;15.10;;;3.30;77.10;;;;;;5069587;28;20232;-84
2020/12/03 10:00:26;;;;;;;22.27;15.00;;;3.10;77.50;;;;;;5064669;28;20217;-86
2020/12/03 10:03:29;;;;;;;24.60;15.00;;;3.10;76.80;;;;;;5054075;28;20280;-86
2020/12/03 10:06:11;;;;;;;23.70;15.23;;;3.20;77.20;;;;;;5047849;28;20196;-82
2020/12/03 10:09:13;;;;;;;24.17;16.37;;;3.20;77.80;;;;;;5045947;28;20206;-84
2020/12/03 10:12:09;;;;;;;21.33;14.70;;;3.40;78.30;;;;;;5060774;28;20231;-85
2020/12/03 10:15:00;;;;;;;23.77;14.90;;;3.50;76.80;;;;;;5075851;28;20568;-83
2020/12/03 10:17:29;;;;;;;22.80;14.33;;;3.60;76.00;;;;;;5075759;28;20285;-85
2020/12/03 10:19:56;;;;;;;21.70;14.43;;;3.60;75.50;;;;;;5070229;28;20198;-82
2020/12/03 10:22:30;;;;;;;20.80;14.20;;;3.60;75.30;;;;;;5082114;28;20243;-85
2020/12/03 10:25:09;;;;;;;22.53;14.73;;;3.60;75.90;;;;;;5075737;28;20211;-85
2020/12/03 10:27:43;;;;;;;20.93;13.57;;;3.40;76.00;;;;;;5078852;28;20271;-83
2020/12/03 10:30:20;;;;;;;21.63;14.47;;;3.40;75.20;;;;;;5073216;28;20194;-83
2020/12/03 10:32:51;;;;;;;22.87;14.70;;;3.40;74.60;;;;;;5069114;28;20228;-83
2020/12/03 10:35:17;;;;;;;19.93;13.70;;;3.50;75.30;;;;;;5082746;28;20291;-87
2020/12/03 10:37:47;;;;;;;22.83;14.00;;;3.80;74.70;;;;;;5088422;28;20228;-86
2020/12/03 10:40:17;;;;;;;22.27;13.87;;;3.70;73.70;;;;;;5084111;28;20205;-85
2020/12/03 10:42:47;;;;;;;18.90;13.03;;;3.60;72.60;;;;;;5088956;28;20547;-85
2020/12/03 10:45:18;;;;;;;20.40;13.23;;;3.30;74.70;;;;;;5091519;28;20242;-86
2020/12/03 10:47:49;;;;;;;19.40;13.60;;;3.60;73.30;;;;;;5078188;28;20691;-83
2020/12/03 10:50:18;;;;;;;19.73;12.97;;;3.60;72.60;;;;;;5064891;28;20236;-83
2020/12/03 10:52:45;;;;;;;19.23;13.23;;;3.80;70.90;;;;;;5068567;28;20235;-85
2020/12/03 10:55:16;;;;;;;18.20;12.87;;;3.70;68.40;;;;;;5075050;28;20197;-84
2020/12/03 10:57:49;;;;;;;20.43;12.67;;;3.80;70.60;;;;;;5086193;28;20228;-82
2020/12/03 11:00:20;;;;;;;19.43;13.40;;;3.90;68.60;;;;;;5090951;28;20611;-82
2020/12/03 11:02:49;;;;;;;17.30;12.27;;;3.70;68.40;;;;;;5086458;28;20228;-84
2020/12/03 11:05:16;;;;;;;18.60;12.40;;;3.90;68.60;;;;;;5084015;28;20209;-82
2020/12/03 11:07:53;;;;;;;16.00;11.87;;;3.70;68.40;;;;;;5073685;28;20593;-83
2020/12/03 11:10:20;;;;;;;19.43;13.00;;;3.60;68.30;;;;;;5060862;28;20197;-85
2020/12/03 11:12:51;;;;;;;19.23;12.63;;;3.50;71.20;;;;;;5066397;28;20225;-82
2020/12/03 11:15:20;;;;;;;18.17;12.40;;;3.60;70.00;;;;;;5057520;28;20731;-86
2020/12/03 11:18:04;;;;;;;18.67;11.97;;;3.50;68.10;;;;;;5082769;28;20224;-82
2020/12/03 11:20:32;;;;;;;19.27;12.73;;;3.60;70.90;;;;;;5089863;28;20557;-84
2020/12/03 11:23:07;;;;;;;18.80;13.40;;;3.50;72.40;;;;;;5090035;28;20307;-85
2020/12/03 11:25:35;;;;;;;18.97;13.17;;;3.50;71.30;;;;;;5100304;28;20288;-81
2020/12/03 11:28:30;;;;;;;19.37;13.03;;;3.20;70.60;;;;;;5091760;28;20237;-83
2020/12/03 11:31:02;;;;;;;19.23;12.87;;;3.00;73.60;;;;;;5090393;28;20643;-83
2020/12/03 11:33:31;;;;;;;22.60;14.33;;;2.90;74.50;;;;;;5085609;28;20215;-83
2020/12/03 11:36:09;;;;;;;19.30;13.07;;;3.10;74.00;;;;;;5082028;28;20240;-82
2020/12/03 11:38:38;;;;;;;19.60;12.37;;;3.20;73.70;;;;;;5089405;28;20306;-85
2020/12/03 11:41:09;;;;;;;18.40;12.60;;;3.10;73.50;;;;;;5087357;28;20220;-86
2020/12/03 11:49:35;;;;;;;18.23;12.40;;;3.20;71.80;;;;;;4946193;29;20218;-83
2020/12/03 11:52:15;;;;;;;16.73;12.23;;;3.20;72.50;;;;;;4987078;28;20309;-82
2020/12/03 11:54:42;;;;;;;17.13;11.53;;;3.30;72.40;;;;;;5051839;28;20254;-83
2020/12/03 11:57:09;;;;;;;19.10;12.30;;;3.10;70.80;;;;;;5086462;28;20223;-88
2020/12/03 11:59:37;;;;;;;17.80;12.20;;;3.00;73.00;;;;;;5084811;28;20231;-82
2020/12/03 12:02:07;;;;;;;16.63;11.57;;;3.20;72.90;;;;;;5088776;28;20221;-88
2020/12/03 12:04:41;;;;;;;18.67;11.67;;;3.20;73.20;;;;;;5083358;28;20197;-83
2020/12/03 12:07:14;;;;;;;16.57;11.87;;;3.20;71.20;;;;;;5083148;28;20227;-83
2020/12/03 12:09:48;;;;;;;19.87;12.03;;;3.20;70.10;;;;;;5088366;28;20198;-82
2020/12/03 12:12:16;;;;;;;17.17;11.37;;;3.10;71.80;;;;;;5085509;28;20216;-82
2020/12/03 12:14:42;;;;;;;16.93;11.77;;;3.10;70.70;;;;;;5108366;28;20280;-84
2020/12/03 12:17:09;;;;;;;16.30;11.87;;;3.10;71.60;;;;;;5088323;28;20247;-81
2020/12/03 12:19:37;;;;;;;17.07;11.97;;;3.20;72.30;;;;;;5091058;28;20204;-85
2020/12/03 12:22:05;;;;;;;20.23;11.57;;;3.20;72.10;;;;;;5096337;28;20301;-88
2020/12/03 12:24:32;;;;;;;15.57;11.67;;;3.30;73.00;;;;;;5092498;28;20284;-84
2020/12/03 12:26:58;;;;;;;15.17;11.27;;;3.20;68.50;;;;;;5079784;28;20216;-85
2020/12/03 12:29:25;;;;;;;14.60;11.00;;;3.30;69.80;;;;;;5084693;28;20190;-85
2020/12/03 12:31:52;;;;;;;16.77;11.67;;;3.30;69.90;;;;;;5091344;28;20318;-83
2020/12/03 12:34:19;;;;;;;15.47;11.07;;;3.20;69.20;;;;;;5082560;28;20546;-84
2020/12/03 12:36:45;;;;;;;17.90;11.70;;;3.00;69.50;;;;;;5086161;28;20219;-82
2020/12/03 12:39:14;;;;;;;17.10;11.93;;;2.90;71.30;;;;;;5091117;28;20204;-83
2020/12/03 12:41:40;;;;;;;17.03;11.90;;;3.00;71.90;;;;;;5081767;28;20565;-83
2020/12/03 12:44:07;;;;;;;14.13;10.90;;;3.10;72.40;;;;;;5083933;28;20260;-82
2020/12/03 12:46:33;;;;;;;17.90;11.93;;;3.20;71.10;;;;;;5081921;28;20224;-84
2020/12/03 12:48:59;;;;;;;17.60;12.00;;;3.20;72.00;;;;;;5082881;28;20193;-83
2020/12/03 12:51:27;;;;;;;15.87;11.67;;;3.50;72.10;;;;;;5084530;28;20225;-82
2020/12/03 12:53:53;;;;;;;16.27;11.90;;;3.40;68.10;;;;;;5085106;28;20208;-87
2020/12/03 12:56:19;;;;;;;15.30;10.37;;;3.60;68.30;;;;;;5085920;28;20746;-85
2020/12/03 12:58:46;;;;;;;14.90;10.73;;;3.50;68.10;;;;;;5086129;28;20722;-83
2020/12/03 13:01:12;;;;;;;14.83;11.10;;;3.30;68.00;;;;;;5081583;28;20497;-83
2020/12/03 13:03:39;;;;;;;15.37;11.13;;;3.20;67.80;;;;;;5077021;28;20338;-86
2020/12/03 13:06:05;;;;;;;13.10;10.60;;;3.20;67.80;;;;;;5077358;28;20203;-84
2020/12/03 13:08:32;;;;;;;18.53;11.43;;;3.20;67.80;;;;;;5074177;28;20196;-87